Time;durP1;ratioP1;P1;durP2;ratioP2;P2;SDS_P1;SDS_P2;PMS_P1;PMS_P2;Temp;Humidity;BMP_temperature;BMP_pressure;BME280_temperature;BME280_humidity;BME280_pressure;Samples;Min_cycle;Max_cycle;Signal;HPM_P1;HPM_P2
2021/07/14 00:01:04;;;;;;;12.00;10.13;;;;;;;;;;5059969;28;20064;-75
2021/07/14 00:03:31;;;;;;;10.60;9.45;;;;;;;;;;5062811;28;20063;-74
2021/07/14 00:05:57;;;;;;;12.63;9.80;;;;;;;;;;5055396;28;20025;-74
2021/07/14 00:08:24;;;;;;;12.90;10.77;;;;;;;;;;5053282;28;20494;-74
2021/07/14 00:10:50;;;;;;;11.32;10.15;;;;;;;;;;5062554;28;20520;-74
2021/07/14 00:24:02;;;;;;;11.07;9.93;;;;;;;;;;5060127;28;20086;-75
2021/07/14 00:26:29;;;;;;;10.45;9.35;;;;;;;;;;5064082;28;20060;-75
2021/07/14 00:28:56;;;;;;;11.20;9.98;;;;;;;;;;5056168;28;20060;-75
2021/07/14 00:31:23;;;;;;;12.02;10.38;;;;;;;;;;5057797;28;20064;-74
2021/07/14 00:33:50;;;;;;;10.45;9.45;;;;;;;;;;5048909;28;20113;-75
2021/07/14 00:36:16;;;;;;;10.60;9.52;;;;;;;;;;5054598;28;20146;-75
2021/07/14 00:38:43;;;;;;;11.88;10.07;;;;;;;;;;5064644;28;20060;-75
2021/07/14 00:41:09;;;;;;;12.18;10.27;;;;;;;;;;5058750;28;20064;-75
2021/07/14 00:43:36;;;;;;;11.70;10.50;;;;;;;;;;5055594;28;20086;-74
2021/07/14 00:46:13;;;;;;;12.20;10.52;;;;;;;;;;5062453;28;20036;-73
2021/07/14 00:48:40;;;;;;;11.45;10.25;;;;;;;;;;5055507;28;20060;-73
2021/07/14 00:51:06;;;;;;;10.25;9.25;;;;;;;;;;5047098;28;20080;-73
2021/07/14 00:53:32;;;;;;;9.55;8.60;;;;;;;;;;5057274;28;20072;-73
2021/07/14 00:55:59;;;;;;;11.45;9.90;;;;;;;;;;5060855;28;20114;-73
2021/07/14 00:58:25;;;;;;;10.38;9.38;;;;;;;;;;5051391;28;20049;-73
2021/07/14 01:00:52;;;;;;;10.52;9.43;;;;;;;;;;5057544;28;20064;-73
2021/07/14 01:03:21;;;;;;;10.25;9.18;;;;;;;;;;5059703;28;20075;-74
2021/07/14 01:05:50;;;;;;;10.85;9.75;;;;;;;;;;5063988;28;20056;-74
2021/07/14 01:08:19;;;;;;;10.05;9.05;;;;;;;;;;5059425;28;20072;-76
2021/07/14 01:10:50;;;;;;;10.27;9.27;;;;;;;;;;5064468;28;20541;-74
2021/07/14 01:13:25;;;;;;;11.50;9.82;;;;;;;;;;5062809;28;20196;-75
2021/07/14 01:16:06;;;;;;;11.52;9.82;;;;;;;;;;5055269;28;20059;-75
2021/07/14 01:18:51;;;;;;;10.80;9.70;;;;;;;;;;5055297;28;22214;-73
2021/07/14 01:21:36;;;;;;;11.75;9.70;;;;;;;;;;5059826;28;20064;-72
2021/07/14 01:24:12;;;;;;;11.50;10.07;;;;;;;;;;5055339;28;20041;-73
2021/07/14 01:26:57;;;;;;;12.52;10.05;;;;;;;;;;5065528;28;20076;-73
2021/07/14 01:29:24;;;;;;;10.88;9.63;;;;;;;;;;5014706;28;20119;-73
2021/07/14 01:31:51;;;;;;;11.15;9.95;;;;;;;;;;5054303;28;20087;-75
2021/07/14 01:34:18;;;;;;;11.15;10.00;;;;;;;;;;5051563;28;20786;-74
2021/07/14 01:36:47;;;;;;;12.27;10.38;;;;;;;;;;5065318;28;20068;-75
2021/07/14 01:39:14;;;;;;;11.10;10.00;;;;;;;;;;5060937;28;20067;-75
2021/07/14 01:41:43;;;;;;;12.85;10.60;;;;;;;;;;5043630;28;20064;-75
2021/07/14 01:44:10;;;;;;;11.00;9.85;;;;;;;;;;5062884;28;20036;-75
2021/07/14 01:46:37;;;;;;;11.25;10.07;;;;;;;;;;5056176;28;20555;-76
2021/07/14 01:49:05;;;;;;;13.25;11.38;;;;;;;;;;5058449;28;20064;-73
2021/07/14 01:51:36;;;;;;;11.43;10.23;;;;;;;;;;5058030;28;20088;-73
2021/07/14 01:54:04;;;;;;;12.95;10.90;;;;;;;;;;5057240;28;20492;-73
2021/07/14 01:56:33;;;;;;;12.52;11.25;;;;;;;;;;5047698;28;20086;-73
2021/07/14 01:59:00;;;;;;;12.18;10.88;;;;;;;;;;5059907;28;20133;-75
2021/07/14 02:01:27;;;;;;;12.75;11.00;;;;;;;;;;5056601;28;20118;-74
2021/07/14 02:04:29;;;;;;;13.00;11.57;;;;;;;;;;5050847;28;20068;-73
2021/07/14 02:06:40;;;;;;;14.75;11.80;;;;;;;;;;5051289;28;20552;-73
2021/07/14 02:09:07;;;;;;;12.98;11.43;;;;;;;;;;5056830;28;20068;-73
2021/07/14 02:11:33;;;;;;;14.48;11.52;;;;;;;;;;5056056;28;20059;-71
2021/07/14 02:14:00;;;;;;;12.95;11.63;;;;;;;;;;5052065;28;20106;-72
2021/07/14 02:16:27;;;;;;;12.88;11.52;;;;;;;;;;5047996;28;20155;-73
2021/07/14 02:18:58;;;;;;;13.52;11.98;;;;;;;;;;5061411;28;20486;-73
2021/07/14 02:21:24;;;;;;;13.13;11.38;;;;;;;;;;5059603;28;20137;-72
2021/07/14 02:23:51;;;;;;;12.98;11.68;;;;;;;;;;5050681;28;20433;-73
2021/07/14 02:26:17;;;;;;;13.27;11.95;;;;;;;;;;5051374;28;20083;-72
2021/07/14 02:28:43;;;;;;;14.07;11.63;;;;;;;;;;5062379;28;20056;-71
2021/07/14 02:31:10;;;;;;;14.88;12.05;;;;;;;;;;5053525;28;20561;-73
2021/07/14 02:33:37;;;;;;;13.60;11.35;;;;;;;;;;5050440;28;20075;-71
2021/07/14 02:36:04;;;;;;;14.40;11.82;;;;;;;;;;5055044;28;20056;-72
2021/07/14 02:38:36;;;;;;;12.75;11.40;;;;;;;;;;5055509;28;20115;-72
2021/07/14 02:41:07;;;;;;;13.35;11.88;;;;;;;;;;5057243;28;20641;-72
2021/07/14 02:43:35;;;;;;;13.68;11.85;;;;;;;;;;5055078;28;20408;-71
2021/07/14 02:46:04;;;;;;;14.20;12.13;;;;;;;;;;5051375;28;20156;-73
2021/07/14 02:48:31;;;;;;;13.60;11.85;;;;;;;;;;5040121;28;20571;-71
2021/07/14 02:50:59;;;;;;;15.90;12.60;;;;;;;;;;5050503;28;20072;-71
2021/07/14 02:53:29;;;;;;;13.98;11.98;;;;;;;;;;5054780;28;20064;-72
2021/07/14 02:55:58;;;;;;;14.43;12.93;;;;;;;;;;5051953;28;20159;-72
2021/07/14 02:58:27;;;;;;;13.68;12.23;;;;;;;;;;5049311;28;20075;-73
2021/07/14 03:00:54;;;;;;;14.85;13.05;;;;;;;;;;5056207;28;20117;-73
2021/07/14 03:03:22;;;;;;;14.50;13.00;;;;;;;;;;5056820;28;20064;-73
2021/07/14 03:05:49;;;;;;;14.55;12.73;;;;;;;;;;5058085;28;20064;-73
2021/07/14 03:08:16;;;;;;;14.57;13.07;;;;;;;;;;5059311;28;20079;-73
2021/07/14 03:10:43;;;;;;;14.23;12.48;;;;;;;;;;5058259;28;20453;-72
2021/07/14 03:13:10;;;;;;;14.23;12.27;;;;;;;;;;5052790;28;20573;-73
2021/07/14 03:15:38;;;;;;;14.52;13.00;;;;;;;;;;5045295;28;20065;-73
2021/07/14 03:18:05;;;;;;;14.68;12.85;;;;;;;;;;5054567;28;20052;-74
2021/07/14 03:20:32;;;;;;;13.93;12.40;;;;;;;;;;5054401;28;20497;-73
2021/07/14 03:22:59;;;;;;;13.75;11.73;;;;;;;;;;5052436;28;20551;-72
2021/07/14 03:25:25;;;;;;;12.88;11.57;;;;;;;;;;5056143;28;21295;-73
2021/07/14 03:27:52;;;;;;;14.57;13.07;;;;;;;;;;5052934;28;20075;-73
2021/07/14 03:30:20;;;;;;;13.77;11.77;;;;;;;;;;5058469;28;20072;-73
2021/07/14 03:32:47;;;;;;;14.30;12.27;;;;;;;;;;5057611;28;20048;-74
2021/07/14 03:35:14;;;;;;;14.85;12.00;;;;;;;;;;5051728;28;20079;-74
2021/07/14 03:37:41;;;;;;;13.85;12.43;;;;;;;;;;5060298;28;20056;-74
2021/07/14 03:40:08;;;;;;;12.52;11.18;;;;;;;;;;5059015;28;20103;-74
2021/07/14 03:42:35;;;;;;;13.40;12.05;;;;;;;;;;5041795;28;20051;-73
2021/07/14 03:45:03;;;;;;;13.30;11.98;;;;;;;;;;5062723;28;20557;-74
2021/07/14 03:47:29;;;;;;;14.68;12.65;;;;;;;;;;5059182;28;20087;-73
2021/07/14 03:49:56;;;;;;;13.70;11.85;;;;;;;;;;5062988;28;20707;-73
2021/07/14 03:52:24;;;;;;;13.43;12.00;;;;;;;;;;5062017;28;20129;-73
2021/07/14 03:54:51;;;;;;;13.45;11.93;;;;;;;;;;5053628;28;20538;-71
2021/07/14 03:57:18;;;;;;;12.80;11.50;;;;;;;;;;5050941;28;20764;-72
2021/07/14 03:59:44;;;;;;;13.88;12.38;;;;;;;;;;5051307;28;20072;-72
2021/07/14 04:02:11;;;;;;;13.85;12.40;;;;;;;;;;5040657;28;20142;-72
2021/07/14 04:04:38;;;;;;;14.52;12.20;;;;;;;;;;5053422;28;20060;-72
2021/07/14 04:07:14;;;;;;;14.02;12.13;;;;;;;;;;5061041;28;20060;-74
2021/07/14 04:09:45;;;;;;;13.63;11.77;;;;;;;;;;5058138;28;20497;-73
2021/07/14 04:12:12;;;;;;;13.25;11.93;;;;;;;;;;5055081;28;20061;-73
2021/07/14 04:14:38;;;;;;;12.68;11.32;;;;;;;;;;5055431;28;20047;-72
2021/07/14 04:17:05;;;;;;;13.48;11.90;;;;;;;;;;5059373;28;20122;-73
2021/07/14 04:19:32;;;;;;;13.68;12.20;;;;;;;;;;5045966;28;20090;-73
2021/07/14 04:21:59;;;;;;;15.15;12.43;;;;;;;;;;5054962;28;20479;-73
2021/07/14 04:24:25;;;;;;;13.70;11.57;;;;;;;;;;5056886;28;20083;-73
2021/07/14 04:26:52;;;;;;;13.02;11.73;;;;;;;;;;5057020;28;20498;-73
2021/07/14 04:29:18;;;;;;;13.20;11.45;;;;;;;;;;5060856;28;20480;-73
2021/07/14 04:31:45;;;;;;;13.00;11.70;;;;;;;;;;5060094;28;20149;-73
2021/07/14 04:34:11;;;;;;;13.02;11.73;;;;;;;;;;5060475;28;20067;-73
2021/07/14 04:36:38;;;;;;;13.35;12.05;;;;;;;;;;5053955;28;20060;-74
2021/07/14 04:39:05;;;;;;;12.85;11.55;;;;;;;;;;5038270;28;20476;-73
2021/07/14 04:41:31;;;;;;;12.75;11.38;;;;;;;;;;5057940;28;20056;-73
2021/07/14 04:44:03;;;;;;;13.02;11.38;;;;;;;;;;5049070;28;20142;-73
2021/07/14 04:46:30;;;;;;;13.75;11.65;;;;;;;;;;5050076;28;20370;-73
2021/07/14 04:48:56;;;;;;;12.38;11.18;;;;;;;;;;5057272;28;20122;-73
2021/07/14 04:51:23;;;;;;;12.80;11.50;;;;;;;;;;5056133;28;20048;-73
2021/07/14 04:53:49;;;;;;;12.10;10.90;;;;;;;;;;5058468;28;20036;-73
2021/07/14 04:56:19;;;;;;;12.35;11.13;;;;;;;;;;5050615;28;20118;-73
2021/07/14 04:58:46;;;;;;;13.48;11.13;;;;;;;;;;5041143;28;20036;-73
2021/07/14 05:01:15;;;;;;;12.95;11.27;;;;;;;;;;5063640;28;20076;-73
2021/07/14 05:03:45;;;;;;;12.77;11.10;;;;;;;;;;5060007;28;20071;-73
2021/07/14 05:06:15;;;;;;;12.80;11.45;;;;;;;;;;5053062;28;20029;-73
2021/07/14 05:08:41;;;;;;;13.90;11.68;;;;;;;;;;5036988;28;20134;-73
2021/07/14 05:11:08;;;;;;;12.32;11.13;;;;;;;;;;5053231;28;20506;-73
2021/07/14 05:13:34;;;;;;;12.35;11.15;;;;;;;;;;5048791;28;20060;-72
2021/07/14 05:16:01;;;;;;;13.30;11.30;;;;;;;;;;5058747;28;20063;-73
2021/07/14 05:18:27;;;;;;;12.70;11.40;;;;;;;;;;5049203;28;20056;-73
2021/07/14 05:20:54;;;;;;;11.90;10.80;;;;;;;;;;5049932;28;20061;-73
2021/07/14 05:23:20;;;;;;;12.27;10.98;;;;;;;;;;5053807;28;20065;-73
2021/07/14 05:25:46;;;;;;;12.15;10.85;;;;;;;;;;5055132;28;20097;-73
2021/07/14 05:28:13;;;;;;;12.32;11.00;;;;;;;;;;5052233;28;20043;-73
2021/07/14 05:30:40;;;;;;;12.63;11.43;;;;;;;;;;5058232;28;20075;-73
2021/07/14 05:33:06;;;;;;;12.30;10.98;;;;;;;;;;5057578;28;20454;-74
2021/07/14 05:35:33;;;;;;;12.85;11.30;;;;;;;;;;5058897;28;20056;-72
2021/07/14 05:38:00;;;;;;;12.23;10.90;;;;;;;;;;5057524;28;20767;-76
2021/07/14 05:40:26;;;;;;;12.30;11.00;;;;;;;;;;5061398;28;20509;-73
2021/07/14 05:42:53;;;;;;;11.75;10.65;;;;;;;;;;5059086;28;20056;-72
2021/07/14 05:45:19;;;;;;;13.05;11.10;;;;;;;;;;5057351;28;20064;-73
2021/07/14 05:47:48;;;;;;;12.30;11.10;;;;;;;;;;5056297;28;20064;-73
2021/07/14 05:50:14;;;;;;;12.20;11.07;;;;;;;;;;5057355;28;20075;-78
2021/07/14 05:52:41;;;;;;;12.43;11.23;;;;;;;;;;5058385;28;20068;-78
2021/07/14 05:55:09;;;;;;;13.10;11.80;;;;;;;;;;5057061;28;20437;-79
2021/07/14 05:57:36;;;;;;;12.05;10.82;;;;;;;;;;5050965;28;20056;-79
2021/07/14 06:00:04;;;;;;;12.13;10.95;;;;;;;;;;5057030;28;20114;-78
2021/07/14 06:02:30;;;;;;;12.82;11.45;;;;;;;;;;5053793;28;20500;-80
2021/07/14 06:04:57;;;;;;;13.20;11.32;;;;;;;;;;5056181;28;20067;-80
2021/07/14 06:07:23;;;;;;;12.65;11.45;;;;;;;;;;5052686;28;20056;-80
2021/07/14 06:09:49;;;;;;;12.88;11.35;;;;;;;;;;5057300;28;20048;-79
2021/07/14 06:12:16;;;;;;;12.40;11.18;;;;;;;;;;5061963;28;20053;-79
2021/07/14 06:14:44;;;;;;;12.70;11.40;;;;;;;;;;5055477;28;20807;-78
2021/07/14 06:17:11;;;;;;;13.73;11.35;;;;;;;;;;5053991;28;20063;-76
2021/07/14 06:19:37;;;;;;;13.20;11.82;;;;;;;;;;5052078;28;20065;-76
2021/07/14 06:22:04;;;;;;;12.40;11.20;;;;;;;;;;5049370;28;20060;-78
2021/07/14 06:24:31;;;;;;;13.15;11.95;;;;;;;;;;5055956;28;20063;-76
2021/07/14 06:26:57;;;;;;;13.30;11.90;;;;;;;;;;5051778;28;20068;-78
2021/07/14 06:29:24;;;;;;;14.07;11.88;;;;;;;;;;5051509;28;20044;-77
2021/07/14 06:31:50;;;;;;;12.32;11.13;;;;;;;;;;5053299;28;20079;-78
2021/07/14 06:34:17;;;;;;;15.18;11.55;;;;;;;;;;5050421;28;20056;-78
2021/07/14 06:36:44;;;;;;;13.10;11.85;;;;;;;;;;5049995;28;20060;-78
2021/07/14 06:39:11;;;;;;;12.90;11.60;;;;;;;;;;5053103;28;20144;-78
2021/07/14 06:41:37;;;;;;;12.80;11.52;;;;;;;;;;5053829;28;20060;-78
2021/07/14 06:44:05;;;;;;;13.75;12.20;;;;;;;;;;5046872;28;20068;-77
2021/07/14 06:46:31;;;;;;;12.82;11.52;;;;;;;;;;5051679;28;20061;-78
2021/07/14 06:48:58;;;;;;;16.75;12.45;;;;;;;;;;5051089;28;20071;-77
2021/07/14 06:51:25;;;;;;;14.10;12.70;;;;;;;;;;5048362;28;20100;-76
2021/07/14 06:53:52;;;;;;;13.60;12.20;;;;;;;;;;5055560;28;20052;-78
2021/07/14 06:56:18;;;;;;;13.70;12.35;;;;;;;;;;5051062;28;20041;-77
2021/07/14 06:58:45;;;;;;;13.55;12.05;;;;;;;;;;5049631;28;20052;-78
2021/07/14 07:01:11;;;;;;;13.77;12.38;;;;;;;;;;5035642;28;20068;-77
2021/07/14 07:03:38;;;;;;;13.35;12.02;;;;;;;;;;5052485;28;20385;-77
2021/07/14 07:06:05;;;;;;;15.07;12.85;;;;;;;;;;5049192;28;20080;-77
2021/07/14 07:08:32;;;;;;;14.32;12.85;;;;;;;;;;5051403;28;20064;-73
2021/07/14 07:10:59;;;;;;;13.98;12.57;;;;;;;;;;5052723;28;20056;-72
2021/07/14 07:13:25;;;;;;;13.73;12.35;;;;;;;;;;5052788;28;20053;-72
2021/07/14 07:15:53;;;;;;;14.57;13.18;;;;;;;;;;5052763;28;20067;-73
2021/07/14 07:18:21;;;;;;;13.85;12.45;;;;;;;;;;5056367;28;20072;-73
2021/07/14 07:20:48;;;;;;;13.98;12.65;;;;;;;;;;5051357;28;20122;-72
2021/07/14 07:23:15;;;;;;;14.93;13.38;;;;;;;;;;5048567;28;20569;-73
2021/07/14 07:25:42;;;;;;;14.40;13.00;;;;;;;;;;5051967;28;20705;-73
2021/07/14 07:28:14;;;;;;;13.90;12.50;;;;;;;;;;5013221;28;20076;-73
2021/07/14 07:30:41;;;;;;;15.27;13.68;;;;;;;;;;5010918;28;20054;-73
2021/07/14 07:33:07;;;;;;;13.75;12.45;;;;;;;;;;5008038;28;20070;-73
2021/07/14 07:35:33;;;;;;;14.82;13.32;;;;;;;;;;5009687;28;20127;-73
2021/07/14 07:38:00;;;;;;;15.55;13.35;;;;;;;;;;5006004;28;20856;-73
2021/07/14 07:40:28;;;;;;;15.70;13.93;;;;;;;;;;5006724;28;20204;-73
2021/07/14 07:42:54;;;;;;;14.55;13.15;;;;;;;;;;5005987;28;20026;-73
2021/07/14 07:45:20;;;;;;;15.45;13.90;;;;;;;;;;5009304;28;20057;-73
2021/07/14 07:47:47;;;;;;;14.20;12.85;;;;;;;;;;5007284;28;20084;-73
2021/07/14 07:50:13;;;;;;;14.98;13.38;;;;;;;;;;5014652;28;20064;-73
2021/07/14 07:52:40;;;;;;;15.40;13.23;;;;;;;;;;5010382;28;20061;-73
2021/07/14 07:55:09;;;;;;;15.63;13.95;;;;;;;;;;5006567;28;20066;-73
2021/07/14 07:57:36;;;;;;;14.32;13.02;;;;;;;;;;5010154;28;20091;-73
2021/07/14 08:00:04;;;;;;;15.65;14.10;;;;;;;;;;5005499;28;20117;-73
2021/07/14 08:02:30;;;;;;;15.00;13.50;;;;;;;;;;5013271;28;20065;-73
2021/07/14 08:04:57;;;;;;;14.57;13.18;;;;;;;;;;5013860;28;20111;-73
2021/07/14 08:07:23;;;;;;;15.15;13.75;;;;;;;;;;5013419;28;20061;-72
2021/07/14 08:09:50;;;;;;;15.25;13.65;;;;;;;;;;5014741;28;20068;-73
2021/07/14 08:12:16;;;;;;;15.23;13.73;;;;;;;;;;5020114;28;20042;-73
2021/07/14 08:14:42;;;;;;;15.07;13.68;;;;;;;;;;5012777;28;20064;-73
2021/07/14 08:17:09;;;;;;;13.88;12.57;;;;;;;;;;5016419;28;20501;-73
2021/07/14 08:19:35;;;;;;;13.88;12.57;;;;;;;;;;5014166;28;20068;-74
2021/07/14 08:22:02;;;;;;;14.82;13.30;;;;;;;;;;5016454;28;20147;-73
2021/07/14 08:24:28;;;;;;;14.55;13.10;;;;;;;;;;5016321;28;20057;-73
2021/07/14 08:26:54;;;;;;;13.90;12.52;;;;;;;;;;5033691;28;20559;-73
2021/07/14 08:29:21;;;;;;;13.95;12.38;;;;;;;;;;5054647;28;20061;-73
2021/07/14 08:31:51;;;;;;;15.18;13.68;;;;;;;;;;5033483;28;20121;-73
2021/07/14 08:34:21;;;;;;;16.25;13.18;;;;;;;;;;5057588;28;20068;-74
2021/07/14 08:36:47;;;;;;;14.10;12.80;;;;;;;;;;5056946;28;20510;-73
2021/07/14 08:39:20;;;;;;;16.20;14.52;;;;;;;;;;5041370;28;20071;-74
2021/07/14 08:41:48;;;;;;;17.75;14.18;;;;;;;;;;5050097;28;20053;-73
2021/07/14 08:44:18;;;;;;;15.98;14.15;;;;;;;;;;5053733;28;20069;-72
2021/07/14 08:46:54;;;;;;;16.27;14.40;;;;;;;;;;5052441;28;20091;-73
2021/07/14 08:49:30;;;;;;;17.60;14.43;;;;;;;;;;5057781;28;20052;-74
2021/07/14 08:52:00;;;;;;;16.70;14.88;;;;;;;;;;5053305;28;20051;-74
2021/07/14 08:54:27;;;;;;;15.02;13.43;;;;;;;;;;5011021;28;20374;-74
2021/07/14 08:56:53;;;;;;;15.00;13.55;;;;;;;;;;5046046;28;20068;-74
2021/07/14 08:59:20;;;;;;;17.35;14.88;;;;;;;;;;5050562;28;20076;-74
2021/07/14 09:01:47;;;;;;;16.35;14.70;;;;;;;;;;5058854;28;20069;-73
2021/07/14 09:04:13;;;;;;;18.20;15.00;;;;;;;;;;5058422;28;20056;-73
2021/07/14 09:06:39;;;;;;;16.83;15.13;;;;;;;;;;5057236;28;20110;-72
2021/07/14 09:09:06;;;;;;;17.15;15.43;;;;;;;;;;5055657;28;20060;-73
2021/07/14 09:11:52;;;;;;;16.25;14.52;;;;;;;;;;5053648;28;20059;-72
2021/07/14 09:14:32;;;;;;;18.05;14.48;;;;;;;;;;5063090;28;20071;-72
2021/07/14 09:16:59;;;;;;;17.70;15.82;;;;;;;;;;5042334;28;20068;-72
2021/07/14 09:19:30;;;;;;;17.63;15.82;;;;;;;;;;5056776;28;21375;-73
2021/07/14 09:21:57;;;;;;;16.80;14.80;;;;;;;;;;5052037;28;20075;-72
2021/07/14 09:24:28;;;;;;;17.42;15.57;;;;;;;;;;5058220;28;20067;-72
2021/07/14 09:26:55;;;;;;;16.70;14.73;;;;;;;;;;5053219;28;20686;-73
2021/07/14 09:29:21;;;;;;;16.75;15.10;;;;;;;;;;5057748;28;20052;-72
2021/07/14 09:31:48;;;;;;;18.95;15.73;;;;;;;;;;5053134;28;20106;-73
2021/07/14 09:34:31;;;;;;;17.42;15.30;;;;;;;;;;5051917;28;20056;-74
2021/07/14 09:36:59;;;;;;;18.63;15.68;;;;;;;;;;5051938;28;20065;-73
2021/07/14 09:39:39;;;;;;;19.98;15.73;;;;;;;;;;5051758;28;20126;-74
2021/07/14 09:42:08;;;;;;;17.05;15.38;;;;;;;;;;5055862;28;20064;-74
2021/07/14 09:44:35;;;;;;;18.05;16.10;;;;;;;;;;5055263;28;20510;-74
2021/07/14 09:47:12;;;;;;;16.92;15.32;;;;;;;;;;5055653;28;20446;-73
2021/07/14 09:49:39;;;;;;;17.40;15.70;;;;;;;;;;5047951;28;20113;-73
2021/07/14 09:52:13;;;;;;;17.20;15.50;;;;;;;;;;5030018;28;20029;-73
2021/07/14 09:54:40;;;;;;;18.25;16.45;;;;;;;;;;5044807;28;20044;-73
2021/07/14 09:57:09;;;;;;;17.42;15.55;;;;;;;;;;5056475;28;20072;-74
2021/07/14 09:59:36;;;;;;;19.02;16.35;;;;;;;;;;5055751;28;20476;-73
2021/07/14 10:02:02;;;;;;;17.35;15.65;;;;;;;;;;5051640;28;20496;-73
2021/07/14 10:04:32;;;;;;;17.88;16.08;;;;;;;;;;5056614;28;20052;-73
2021/07/14 10:07:06;;;;;;;17.63;15.90;;;;;;;;;;5054239;28;20064;-73
2021/07/14 10:09:32;;;;;;;17.67;16.02;;;;;;;;;;5059745;28;20552;-73
2021/07/14 10:12:17;;;;;;;17.25;15.48;;;;;;;;;;5054238;28;20091;-73
2021/07/14 10:14:44;;;;;;;18.08;16.27;;;;;;;;;;5047823;28;20126;-73
2021/07/14 10:17:10;;;;;;;18.63;16.83;;;;;;;;;;5049950;28;20163;-74
2021/07/14 10:19:36;;;;;;;18.80;16.92;;;;;;;;;;5033936;28;20068;-73
2021/07/14 10:22:03;;;;;;;20.23;17.08;;;;;;;;;;5063539;28;20122;-74
2021/07/14 10:24:30;;;;;;;17.92;16.02;;;;;;;;;;5053732;28;20064;-73
2021/07/14 10:26:56;;;;;;;18.88;16.88;;;;;;;;;;5056340;28;20705;-73
2021/07/14 10:29:24;;;;;;;18.23;16.42;;;;;;;;;;5057370;28;20079;-73
2021/07/14 10:31:51;;;;;;;19.10;17.02;;;;;;;;;;5050454;28;20766;-73
2021/07/14 10:34:20;;;;;;;18.98;16.65;;;;;;;;;;5052774;28;20086;-73
2021/07/14 10:36:51;;;;;;;18.73;16.92;;;;;;;;;;5056570;28;20500;-73
2021/07/14 10:39:18;;;;;;;17.60;15.90;;;;;;;;;;5045993;28;20068;-73
2021/07/14 10:41:45;;;;;;;19.73;16.38;;;;;;;;;;5051072;28;20055;-73
2021/07/14 10:44:14;;;;;;;19.42;17.52;;;;;;;;;;5059550;28;20056;-73
2021/07/14 10:46:40;;;;;;;19.27;17.33;;;;;;;;;;5054783;28;20060;-72
2021/07/14 10:49:09;;;;;;;18.98;17.05;;;;;;;;;;5055089;28;20079;-74
2021/07/14 10:51:36;;;;;;;19.85;17.58;;;;;;;;;;5051258;28;20052;-72
2021/07/14 10:54:11;;;;;;;18.73;16.83;;;;;;;;;;5056077;28;20502;-73
2021/07/14 10:56:41;;;;;;;19.83;17.83;;;;;;;;;;5048702;28;20527;-73
2021/07/14 10:59:09;;;;;;;18.80;16.90;;;;;;;;;;5052460;28;20064;-72
2021/07/14 11:01:40;;;;;;;21.55;18.10;;;;;;;;;;5057534;28;20060;-72
2021/07/14 11:04:11;;;;;;;19.60;17.60;;;;;;;;;;5052998;28;20583;-73
2021/07/14 11:06:37;;;;;;;;;;;;;;;;;;5058586;28;20040;-72
2021/07/14 11:09:03;;;;;;;19.73;17.67;;;;;;;;;;5047671;28;19924;-73
2021/07/14 11:11:33;;;;;;;18.70;16.80;;;;;;;;;;5056621;28;20053;-73
2021/07/14 11:14:09;;;;;;;19.17;17.15;;;;;;;;;;5060721;28;20503;-73
2021/07/14 11:16:39;;;;;;;17.98;16.27;;;;;;;;;;5058821;28;21389;-73
2021/07/14 11:19:13;;;;;;;18.48;16.58;;;;;;;;;;5051056;28;20110;-73
2021/07/14 11:21:44;;;;;;;18.50;16.60;;;;;;;;;;5060828;28;20095;-73
2021/07/14 11:24:10;;;;;;;;;;;;;;;;;;5057638;28;20076;-73
2021/07/14 11:26:36;;;;;;;19.60;17.50;;;;;;;;;;5053375;28;19956;-73
2021/07/14 11:29:11;;;;;;;18.33;16.63;;;;;;;;;;5056095;28;20037;-73
2021/07/14 11:31:42;;;;;;;18.75;16.80;;;;;;;;;;5057845;28;20048;-73
2021/07/14 11:34:28;;;;;;;19.05;16.92;;;;;;;;;;5050252;28;20072;-73
2021/07/14 11:36:55;;;;;;;18.58;16.90;;;;;;;;;;5050544;28;20126;-72
2021/07/14 11:39:29;;;;;;;18.70;16.90;;;;;;;;;;5049031;28;20071;-73
2021/07/14 11:42:14;;;;;;;18.33;16.60;;;;;;;;;;5051447;28;20072;-73
2021/07/14 11:44:40;;;;;;;19.02;17.08;;;;;;;;;;5036675;28;20137;-73
2021/07/14 11:47:31;;;;;;;19.10;17.20;;;;;;;;;;5057727;28;20068;-73
2021/07/14 11:49:58;;;;;;;19.50;17.38;;;;;;;;;;5054937;28;20060;-73
2021/07/14 11:52:43;;;;;;;19.45;17.58;;;;;;;;;;5053327;28;20164;-72
2021/07/14 11:55:24;;;;;;;19.15;17.15;;;;;;;;;;5034480;28;20102;-75
2021/07/14 11:57:54;;;;;;;24.65;16.77;;;;;;;;;;5062175;28;20082;-73
2021/07/14 12:00:34;;;;;;;19.80;17.67;;;;;;;;;;5062299;28;20461;-73
2021/07/14 12:03:01;;;;;;;19.13;17.10;;;;;;;;;;5052598;28;20130;-73
2021/07/14 12:05:31;;;;;;;19.48;17.65;;;;;;;;;;5058561;28;20768;-73
2021/07/14 12:08:14;;;;;;;19.53;17.63;;;;;;;;;;5057675;28;20583;-73
2021/07/14 12:10:41;;;;;;;20.23;18.25;;;;;;;;;;5052714;28;20530;-73
2021/07/14 12:13:07;;;;;;;20.08;18.08;;;;;;;;;;5054887;28;20064;-74
2021/07/14 12:15:34;;;;;;;19.67;17.70;;;;;;;;;;5053525;28;20052;-74
2021/07/14 12:18:07;;;;;;;19.27;17.42;;;;;;;;;;5057549;28;20071;-73
2021/07/14 12:20:34;;;;;;;19.23;17.20;;;;;;;;;;5049462;28;20284;-73
2021/07/14 12:23:00;;;;;;;19.60;17.25;;;;;;;;;;5052073;28;20087;-74
2021/07/14 12:25:27;;;;;;;20.42;18.17;;;;;;;;;;5035636;28;21510;-72
2021/07/14 12:27:53;;;;;;;20.33;18.33;;;;;;;;;;5036506;28;20068;-73
2021/07/14 12:30:23;;;;;;;21.80;19.42;;;;;;;;;;5056733;28;20068;-74
2021/07/14 12:32:54;;;;;;;21.65;19.35;;;;;;;;;;5055283;28;20041;-73
2021/07/14 12:35:23;;;;;;;20.92;18.83;;;;;;;;;;5057095;28;20060;-74
2021/07/14 12:37:57;;;;;;;20.23;18.33;;;;;;;;;;5051050;28;20481;-73
2021/07/14 12:40:24;;;;;;;20.98;18.65;;;;;;;;;;5056902;28;20395;-73
2021/07/14 12:42:51;;;;;;;20.60;18.33;;;;;;;;;;5052494;28;20056;-72
2021/07/14 12:45:37;;;;;;;20.42;17.92;;;;;;;;;;5050322;28;20060;-75
2021/07/14 12:48:05;;;;;;;20.05;17.95;;;;;;;;;;5055218;28;20064;-73
2021/07/14 12:50:32;;;;;;;19.73;17.77;;;;;;;;;;5055175;28;20092;-71
2021/07/14 12:52:59;;;;;;;20.42;18.27;;;;;;;;;;5059759;28;20106;-72
2021/07/14 12:55:26;;;;;;;19.50;17.65;;;;;;;;;;5036455;28;20098;-72
2021/07/14 12:57:54;;;;;;;20.35;18.30;;;;;;;;;;5061442;28;20065;-74
2021/07/14 13:00:22;;;;;;;20.13;18.15;;;;;;;;;;5060223;28;20098;-74
2021/07/14 13:02:51;;;;;;;20.25;18.20;;;;;;;;;;5063529;28;20548;-74
2021/07/14 13:05:18;;;;;;;20.00;18.00;;;;;;;;;;5058170;28;20056;-73
2021/07/14 13:07:52;;;;;;;20.95;18.95;;;;;;;;;;5054391;28;20652;-74
2021/07/14 13:10:19;;;;;;;20.60;18.50;;;;;;;;;;5052948;28;20094;-73
2021/07/14 13:12:47;;;;;;;20.10;18.10;;;;;;;;;;5050235;28;20079;-74
2021/07/14 13:15:17;;;;;;;20.17;18.13;;;;;;;;;;5056229;28;20056;-74
2021/07/14 13:17:44;;;;;;;21.52;19.25;;;;;;;;;;5054722;28;20071;-74
2021/07/14 13:20:10;;;;;;;20.70;18.63;;;;;;;;;;5053632;28;20068;-74
2021/07/14 13:22:37;;;;;;;20.63;18.52;;;;;;;;;;5058742;28;20060;-74
2021/07/14 13:25:08;;;;;;;21.20;19.10;;;;;;;;;;5055408;28;20158;-74
2021/07/14 13:27:39;;;;;;;19.58;17.65;;;;;;;;;;5055808;28;20110;-74
2021/07/14 13:30:20;;;;;;;19.67;17.70;;;;;;;;;;5062900;28;20028;-74
2021/07/14 13:33:01;;;;;;;21.15;19.00;;;;;;;;;;5061270;28;20091;-74
2021/07/14 13:35:27;;;;;;;;;;;;;;;;;;5055880;28;20359;-74
2021/07/14 13:37:54;;;;;;;21.40;19.38;;;;;;;;;;5058444;28;20443;-73
2021/07/14 13:40:24;;;;;;;21.10;19.05;;;;;;;;;;5049304;28;20110;-73
2021/07/14 13:42:52;;;;;;;20.70;18.60;;;;;;;;;;5053915;28;20507;-72
2021/07/14 13:45:29;;;;;;;21.10;18.90;;;;;;;;;;5050775;28;20068;-72
2021/07/14 13:47:56;;;;;;;21.63;19.38;;;;;;;;;;5058125;28;20053;-73
2021/07/14 13:50:22;;;;;;;21.05;19.15;;;;;;;;;;5050691;28;20814;-72
2021/07/14 13:52:56;;;;;;;21.20;19.00;;;;;;;;;;5053516;28;20607;-72
2021/07/14 13:55:22;;;;;;;21.02;18.92;;;;;;;;;;5050321;28;20064;-73
2021/07/14 13:57:48;;;;;;;21.42;19.40;;;;;;;;;;5039095;28;20068;-71
2021/07/14 14:00:15;;;;;;;21.20;19.02;;;;;;;;;;5058685;28;20178;-71
2021/07/14 14:02:41;;;;;;;20.40;18.55;;;;;;;;;;5051068;28;20064;-71
2021/07/14 14:05:10;;;;;;;20.98;18.88;;;;;;;;;;5051601;28;20578;-73
2021/07/14 14:07:37;;;;;;;19.98;17.98;;;;;;;;;;5050825;28;20063;-72
2021/07/14 14:10:06;;;;;;;21.10;19.15;;;;;;;;;;5055057;28;20098;-71
2021/07/14 14:12:40;;;;;;;20.80;18.70;;;;;;;;;;5059917;28;20064;-72
2021/07/14 14:15:12;;;;;;;20.25;18.25;;;;;;;;;;5051423;28;20610;-71
2021/07/14 14:17:38;;;;;;;20.40;18.40;;;;;;;;;;5050952;28;20500;-71
2021/07/14 14:20:11;;;;;;;21.42;19.30;;;;;;;;;;5059160;28;20048;-72
2021/07/14 14:22:37;;;;;;;20.65;18.65;;;;;;;;;;5057212;28;20444;-72
2021/07/14 14:25:08;;;;;;;20.83;18.80;;;;;;;;;;5057561;28;20056;-72
2021/07/14 14:27:48;;;;;;;20.70;18.60;;;;;;;;;;5056325;28;20060;-71
2021/07/14 14:30:16;;;;;;;21.30;19.20;;;;;;;;;;5053035;28;20635;-73
2021/07/14 14:32:48;;;;;;;19.92;17.83;;;;;;;;;;5049848;28;20060;-72
2021/07/14 14:35:14;;;;;;;20.75;18.73;;;;;;;;;;5051432;28;20583;-74
2021/07/14 14:37:41;;;;;;;20.42;18.52;;;;;;;;;;5051390;28;20139;-72